Time;durP1;ratioP1;P1;durP2;ratioP2;P2;SDS_P1;SDS_P2;PMS_P1;PMS_P2;Temp;Humidity;BMP_temperature;BMP_pressure;BME280_temperature;BME280_humidity;BME280_pressure;Samples;Min_cycle;Max_cycle;Signal;HPM_P1;HPM_P2
2021/01/12 00:00:51;;;;;;;8.95;6.25;;;;;;;;;;5062438;28;20055;-77
2021/01/12 00:03:17;;;;;;;10.93;6.05;;;;;;;;;;5066167;28;20072;-77
2021/01/12 00:05:44;;;;;;;7.82;5.82;;;;;;;;;;5063488;28;20055;-77
2021/01/12 00:08:10;;;;;;;9.80;5.82;;;;;;;;;;5064722;28;20102;-76
2021/01/12 00:10:36;;;;;;;8.30;5.90;;;;;;;;;;5063954;28;20407;-77
2021/01/12 00:13:02;;;;;;;8.20;5.45;;;;;;;;;;5067734;28;20088;-78
2021/01/12 00:15:28;;;;;;;8.50;6.03;;;;;;;;;;5061517;28;20052;-79
2021/01/12 00:17:54;;;;;;;8.55;5.65;;;;;;;;;;5060422;28;20051;-78
2021/01/12 00:20:21;;;;;;;8.98;5.03;;;;;;;;;;5063985;28;20044;-76
2021/01/12 00:22:47;;;;;;;8.77;5.10;;;;;;;;;;5062735;28;20055;-77
2021/01/12 00:25:13;;;;;;;8.40;5.43;;;;;;;;;;5061909;28;20759;-73
2021/01/12 00:27:52;;;;;;;9.80;5.32;;;;;;;;;;5066805;28;20430;-75
2021/01/12 00:30:20;;;;;;;7.55;4.78;;;;;;;;;;5062082;28;20099;-75
2021/01/12 00:32:46;;;;;;;7.00;4.65;;;;;;;;;;5066197;28;20128;-76
2021/01/12 00:35:14;;;;;;;9.10;5.70;;;;;;;;;;5065657;28;20055;-76
2021/01/12 00:37:40;;;;;;;10.10;5.43;;;;;;;;;;5062472;28;20136;-77
2021/01/12 00:40:07;;;;;;;8.82;5.10;;;;;;;;;;5061699;28;20048;-78
2021/01/12 00:42:33;;;;;;;6.82;4.60;;;;;;;;;;5059218;28;20055;-77
2021/01/12 00:44:59;;;;;;;9.38;5.03;;;;;;;;;;5067102;28;20049;-78
2021/01/12 00:47:27;;;;;;;9.77;5.95;;;;;;;;;;5063191;28;20044;-78
2021/01/12 00:49:53;;;;;;;8.45;5.40;;;;;;;;;;5060661;28;20045;-76
2021/01/12 00:52:19;;;;;;;7.07;5.35;;;;;;;;;;5062914;28;20071;-77
2021/01/12 00:54:51;;;;;;;7.95;5.28;;;;;;;;;;5063657;28;20143;-82
2021/01/12 00:57:19;;;;;;;7.20;4.35;;;;;;;;;;5060476;28;20052;-78
2021/01/12 00:59:46;;;;;;;7.35;5.38;;;;;;;;;;5061085;28;20131;-77
2021/01/12 01:02:17;;;;;;;7.80;4.65;;;;;;;;;;5065636;28;20106;-78
2021/01/12 01:04:43;;;;;;;5.95;4.65;;;;;;;;;;5062038;28;20040;-77
2021/01/12 01:07:09;;;;;;;8.90;5.15;;;;;;;;;;5064559;28;20136;-78
2021/01/12 01:09:35;;;;;;;7.18;4.93;;;;;;;;;;5065278;28;20040;-78
2021/01/12 01:12:02;;;;;;;6.57;4.20;;;;;;;;;;5066653;28;20135;-76
2021/01/12 01:14:30;;;;;;;7.67;5.00;;;;;;;;;;5069353;28;20482;-78
2021/01/12 01:16:57;;;;;;;7.10;4.43;;;;;;;;;;5060780;28;20057;-79
2021/01/12 01:19:23;;;;;;;7.90;4.30;;;;;;;;;;5054813;28;20044;-77
2021/01/12 01:21:49;;;;;;;8.27;4.50;;;;;;;;;;5065903;28;20075;-78
2021/01/12 01:24:15;;;;;;;5.32;3.88;;;;;;;;;;5065688;28;20053;-78
2021/01/12 01:26:45;;;;;;;7.53;4.38;;;;;;;;;;5070706;28;20057;-76
2021/01/12 01:29:11;;;;;;;5.95;4.47;;;;;;;;;;5069391;28;20472;-78
2021/01/12 01:31:42;;;;;;;7.47;4.38;;;;;;;;;;5055553;28;20114;-74
2021/01/12 01:34:15;;;;;;;6.20;4.20;;;;;;;;;;5071896;28;20048;-77
2021/01/12 01:36:41;;;;;;;5.97;4.25;;;;;;;;;;5069165;28;20135;-76
2021/01/12 01:39:07;;;;;;;9.57;4.55;;;;;;;;;;5067749;28;20040;-75
2021/01/12 01:41:34;;;;;;;6.82;3.92;;;;;;;;;;5066474;28;20059;-75
2021/01/12 01:44:03;;;;;;;7.03;4.63;;;;;;;;;;5071805;28;20053;-75
2021/01/12 01:46:30;;;;;;;6.90;4.13;;;;;;;;;;5069313;28;20499;-74
2021/01/12 01:48:57;;;;;;;5.38;3.67;;;;;;;;;;5068494;28;20104;-75
2021/01/12 01:51:24;;;;;;;6.50;4.13;;;;;;;;;;5066226;28;20072;-74
2021/01/12 01:53:51;;;;;;;7.85;4.72;;;;;;;;;;5057548;28;20041;-74
2021/01/12 01:56:17;;;;;;;7.68;4.55;;;;;;;;;;5069768;28;20052;-74
2021/01/12 01:58:43;;;;;;;6.43;4.38;;;;;;;;;;5064952;28;20132;-74
2021/01/12 02:01:10;;;;;;;6.07;3.60;;;;;;;;;;5070226;28;20123;-74
2021/01/12 02:03:45;;;;;;;6.28;3.88;;;;;;;;;;5066175;28;20717;-76
2021/01/12 02:06:17;;;;;;;6.57;4.10;;;;;;;;;;5066139;28;20467;-75
2021/01/12 02:08:51;;;;;;;5.20;3.22;;;;;;;;;;5063118;28;20052;-74
2021/01/12 02:11:19;;;;;;;8.07;3.83;;;;;;;;;;5061007;28;20127;-73
2021/01/12 02:13:45;;;;;;;5.18;3.47;;;;;;;;;;5062221;28;20078;-74
2021/01/12 02:16:17;;;;;;;7.72;3.35;;;;;;;;;;5067720;28;20133;-74
2021/01/12 02:18:43;;;;;;;7.10;4.05;;;;;;;;;;5063492;28;20040;-74
2021/01/12 02:21:10;;;;;;;7.63;4.43;;;;;;;;;;5064465;28;20260;-73
2021/01/12 02:23:48;;;;;;;6.10;3.88;;;;;;;;;;5060661;28;20054;-74
2021/01/12 02:26:17;;;;;;;5.80;3.38;;;;;;;;;;5064866;28;20135;-72
2021/01/12 02:28:43;;;;;;;5.32;4.00;;;;;;;;;;5069259;28;20076;-74
2021/01/12 02:31:09;;;;;;;6.35;3.85;;;;;;;;;;5064095;28;20076;-74
2021/01/12 02:33:40;;;;;;;7.63;2.90;;;;;;;;;;5067170;28;20047;-74
2021/01/12 02:36:07;;;;;;;5.03;3.15;;;;;;;;;;5070154;28;20059;-73
2021/01/12 02:38:34;;;;;;;8.30;4.10;;;;;;;;;;5065856;28;20063;-74
2021/01/12 02:41:27;;;;;;;7.22;4.13;;;;;;;;;;5065313;28;20163;-73
2021/01/12 02:43:53;;;;;;;7.65;3.70;;;;;;;;;;5064540;28;20529;-75
2021/01/12 02:46:19;;;;;;;6.20;4.13;;;;;;;;;;5067112;28;20045;-74
2021/01/12 02:48:45;;;;;;;6.25;4.25;;;;;;;;;;5068806;28;20049;-73
2021/01/12 02:51:11;;;;;;;7.22;3.83;;;;;;;;;;5059266;28;20055;-73
2021/01/12 02:53:38;;;;;;;5.03;3.40;;;;;;;;;;5067326;28;20144;-74
2021/01/12 02:56:04;;;;;;;5.72;3.60;;;;;;;;;;5057796;28;20204;-75
2021/01/12 02:58:31;;;;;;;6.05;3.28;;;;;;;;;;5070860;28;20063;-75
2021/01/12 03:00:57;;;;;;;6.47;4.47;;;;;;;;;;5068978;28;20048;-75
2021/01/12 03:03:23;;;;;;;7.75;4.00;;;;;;;;;;5066766;28;20044;-74
2021/01/12 03:05:49;;;;;;;4.97;3.47;;;;;;;;;;5059028;28;20514;-73
2021/01/12 03:08:15;;;;;;;8.65;4.18;;;;;;;;;;5065542;28;20139;-74
2021/01/12 03:10:43;;;;;;;5.27;3.83;;;;;;;;;;5069229;28;20054;-74
2021/01/12 03:13:10;;;;;;;6.40;3.90;;;;;;;;;;5066174;28;20066;-74
2021/01/12 03:15:36;;;;;;;4.97;3.10;;;;;;;;;;5064877;28;20553;-74
2021/01/12 03:18:03;;;;;;;6.65;3.80;;;;;;;;;;5064421;28;20131;-74
2021/01/12 03:20:30;;;;;;;4.90;3.65;;;;;;;;;;5067736;28;20045;-74
2021/01/12 03:22:57;;;;;;;4.65;3.42;;;;;;;;;;5061139;28;20051;-70
2021/01/12 03:25:23;;;;;;;5.55;3.15;;;;;;;;;;5059399;28;20048;-73
2021/01/12 03:27:49;;;;;;;4.72;2.97;;;;;;;;;;5067804;28;20055;-73
2021/01/12 03:30:15;;;;;;;5.50;3.70;;;;;;;;;;5068067;28;20041;-73
2021/01/12 03:32:42;;;;;;;6.00;3.42;;;;;;;;;;5060978;28;20131;-73
2021/01/12 03:35:11;;;;;;;6.30;3.05;;;;;;;;;;5066887;28;20044;-76
2021/01/12 03:37:38;;;;;;;4.63;3.20;;;;;;;;;;5064974;28;20124;-75
2021/01/12 03:40:05;;;;;;;4.75;2.95;;;;;;;;;;5062645;28;20050;-76
2021/01/12 03:42:32;;;;;;;9.93;3.50;;;;;;;;;;5062628;28;20041;-76
2021/01/12 03:44:58;;;;;;;5.78;3.35;;;;;;;;;;5066959;28;20036;-76
2021/01/12 03:47:25;;;;;;;7.10;3.22;;;;;;;;;;5061455;28;20131;-79
2021/01/12 03:49:52;;;;;;;6.03;3.15;;;;;;;;;;5065530;28;20058;-78
2021/01/12 03:52:24;;;;;;;6.38;3.65;;;;;;;;;;5063076;28;20562;-80
2021/01/12 03:54:50;;;;;;;8.10;3.25;;;;;;;;;;5062439;28;20131;-79
2021/01/12 03:57:16;;;;;;;5.78;3.65;;;;;;;;;;5056020;28;20049;-79
2021/01/12 03:59:42;;;;;;;4.60;3.40;;;;;;;;;;5063602;28;20443;-77
2021/01/12 04:02:09;;;;;;;6.55;3.40;;;;;;;;;;5062523;28;20509;-78
2021/01/12 04:04:35;;;;;;;5.70;2.72;;;;;;;;;;5055978;28;20053;-79
2021/01/12 04:07:01;;;;;;;5.22;2.90;;;;;;;;;;5063459;28;20048;-79
2021/01/12 04:09:29;;;;;;;7.00;3.58;;;;;;;;;;5062337;28;20064;-75
2021/01/12 04:11:55;;;;;;;5.28;3.17;;;;;;;;;;5065756;28;20109;-75
2021/01/12 04:14:21;;;;;;;4.85;3.03;;;;;;;;;;5064059;28;20048;-77
2021/01/12 04:16:48;;;;;;;5.13;3.45;;;;;;;;;;5066541;28;20052;-74
2021/01/12 04:19:17;;;;;;;;;;;;;;;;;;5064209;28;20052;-75
2021/01/12 04:21:46;;;;;;;5.85;3.30;;;;;;;;;;5065962;28;20013;-75
2021/01/12 04:24:12;;;;;;;5.32;2.97;;;;;;;;;;5062884;28;20048;-75
2021/01/12 04:26:38;;;;;;;5.05;3.33;;;;;;;;;;5068757;28;20558;-77
2021/01/12 04:29:04;;;;;;;5.22;3.65;;;;;;;;;;5062631;28;20048;-74
2021/01/12 04:31:33;;;;;;;5.47;3.25;;;;;;;;;;5064035;28;20137;-74
2021/01/12 04:34:01;;;;;;;4.32;3.00;;;;;;;;;;5056790;28;20137;-74
2021/01/12 04:36:28;;;;;;;3.65;3.13;;;;;;;;;;5056862;28;20053;-74
2021/01/12 04:38:54;;;;;;;4.88;3.10;;;;;;;;;;5067108;28;20079;-75
2021/01/12 04:41:20;;;;;;;5.05;3.50;;;;;;;;;;5058787;28;20505;-75
2021/01/12 04:43:46;;;;;;;5.28;3.10;;;;;;;;;;5062827;28;20049;-74
2021/01/12 04:46:12;;;;;;;4.93;3.33;;;;;;;;;;5058702;28;20052;-74
2021/01/12 04:48:38;;;;;;;4.82;3.20;;;;;;;;;;5062965;28;20119;-75
2021/01/12 04:51:06;;;;;;;6.40;3.00;;;;;;;;;;5062832;28;20083;-76
2021/01/12 04:53:39;;;;;;;5.35;3.38;;;;;;;;;;5065913;28;20056;-75
2021/01/12 04:56:06;;;;;;;5.85;3.58;;;;;;;;;;5068576;28;20063;-74
2021/01/12 04:58:39;;;;;;;5.60;4.22;;;;;;;;;;5071838;28;20048;-75
2021/01/12 05:01:12;;;;;;;4.35;3.08;;;;;;;;;;5066514;28;20109;-74
2021/01/12 05:03:42;;;;;;;5.72;3.30;;;;;;;;;;5068690;28;20045;-75
2021/01/12 05:06:08;;;;;;;6.10;3.78;;;;;;;;;;5063521;28;20041;-74
2021/01/12 05:08:35;;;;;;;4.50;3.10;;;;;;;;;;5061681;28;20044;-74
2021/01/12 05:11:01;;;;;;;6.40;4.03;;;;;;;;;;5065780;28;20041;-74
2021/01/12 05:13:29;;;;;;;6.68;3.50;;;;;;;;;;5066917;28;20047;-75
2021/01/12 05:15:57;;;;;;;5.93;3.30;;;;;;;;;;5069898;28;20052;-76
2021/01/12 05:18:26;;;;;;;6.40;3.65;;;;;;;;;;5061041;28;20509;-77
2021/01/12 05:20:55;;;;;;;5.65;3.70;;;;;;;;;;5067126;28;20041;-77
2021/01/12 05:23:22;;;;;;;5.03;3.70;;;;;;;;;;5067889;28;20501;-77
2021/01/12 05:25:49;;;;;;;5.60;3.88;;;;;;;;;;5066375;28;20062;-77
2021/01/12 05:28:17;;;;;;;5.43;3.35;;;;;;;;;;5066283;28;20083;-78
2021/01/12 05:30:45;;;;;;;5.22;2.90;;;;;;;;;;5068795;28;20082;-78
2021/01/12 05:33:33;;;;;;;6.75;3.92;;;;;;;;;;5065431;28;20398;-77
2021/01/12 05:36:00;;;;;;;8.07;4.00;;;;;;;;;;5065396;28;20410;-76
2021/01/12 05:38:27;;;;;;;5.35;3.33;;;;;;;;;;5068081;28;20052;-75
2021/01/12 05:40:55;;;;;;;5.90;3.03;;;;;;;;;;5068702;28;20049;-77
2021/01/12 05:43:33;;;;;;;4.88;3.30;;;;;;;;;;5069052;28;20129;-74
2021/01/12 05:46:04;;;;;;;6.60;3.08;;;;;;;;;;5065544;28;20052;-76
2021/01/12 05:48:32;;;;;;;7.30;3.20;;;;;;;;;;5065994;28;20119;-76
2021/01/12 05:51:01;;;;;;;5.35;3.30;;;;;;;;;;5062772;28;20422;-78
2021/01/12 05:53:32;;;;;;;5.93;2.83;;;;;;;;;;5062625;28;20045;-79
2021/01/12 05:56:00;;;;;;;3.85;2.75;;;;;;;;;;5064497;28;20088;-79
2021/01/12 05:58:30;;;;;;;4.80;3.15;;;;;;;;;;5069547;28;20045;-78
2021/01/12 06:01:01;;;;;;;5.40;2.83;;;;;;;;;;5066472;28;20380;-76
2021/01/12 06:03:28;;;;;;;4.32;2.85;;;;;;;;;;5066363;28;20218;-76
2021/01/12 06:05:54;;;;;;;7.00;3.13;;;;;;;;;;5068989;28;20056;-76
2021/01/12 06:08:21;;;;;;;3.90;2.70;;;;;;;;;;5063440;28;20044;-76
2021/01/12 06:10:49;;;;;;;4.22;2.50;;;;;;;;;;5066314;28;20716;-76
2021/01/12 06:13:16;;;;;;;4.38;2.90;;;;;;;;;;5065505;28;20045;-77
2021/01/12 06:15:48;;;;;;;8.02;3.40;;;;;;;;;;5068336;28;20479;-79
2021/01/12 06:18:18;;;;;;;4.85;3.00;;;;;;;;;;5069163;28;20052;-78
2021/01/12 06:20:56;;;;;;;4.82;2.97;;;;;;;;;;5069770;28;20041;-78
2021/01/12 06:23:38;;;;;;;4.85;2.90;;;;;;;;;;5061959;28;20132;-76
2021/01/12 06:26:04;;;;;;;4.18;2.55;;;;;;;;;;5062181;28;20495;-77
2021/01/12 06:28:31;;;;;;;4.18;2.60;;;;;;;;;;5062949;28;20049;-75
2021/01/12 06:30:57;;;;;;;4.25;2.85;;;;;;;;;;5064326;28;20045;-75
2021/01/12 06:33:23;;;;;;;5.10;3.03;;;;;;;;;;5063378;28;20127;-75
2021/01/12 06:35:51;;;;;;;4.97;2.92;;;;;;;;;;5068651;28;20040;-75
2021/01/12 06:38:20;;;;;;;4.40;2.80;;;;;;;;;;5064334;28;20414;-75
2021/01/12 06:40:49;;;;;;;4.75;2.85;;;;;;;;;;5066639;28;20394;-76
2021/01/12 06:43:16;;;;;;;4.72;2.95;;;;;;;;;;5061089;28;20137;-75
2021/01/12 06:45:45;;;;;;;;;;;;;;;;;;5066270;28;20106;-75
2021/01/12 06:48:14;;;;;;;5.47;2.97;;;;;;;;;;5065355;28;19920;-75
2021/01/12 06:50:43;;;;;;;5.23;3.27;;;;;;;;;;5065115;28;20536;-75
2021/01/12 06:53:11;;;;;;;5.65;3.17;;;;;;;;;;5061837;28;20293;-75
2021/01/12 06:55:37;;;;;;;4.45;3.25;;;;;;;;;;5056762;28;20068;-75
2021/01/12 06:58:07;;;;;;;6.50;2.85;;;;;;;;;;5061668;28;20129;-74
2021/01/12 07:00:34;;;;;;;8.23;2.67;;;;;;;;;;5065699;28;20041;-73
2021/01/12 07:03:02;;;;;;;6.40;3.42;;;;;;;;;;5065521;28;20161;-81
2021/01/12 07:05:35;;;;;;;7.38;3.88;;;;;;;;;;5062537;28;20040;-78
2021/01/12 07:08:06;;;;;;;5.80;2.72;;;;;;;;;;5064433;28;20143;-72
2021/01/12 07:10:39;;;;;;;4.68;3.13;;;;;;;;;;5063082;28;20045;-74
2021/01/12 07:13:06;;;;;;;4.43;2.83;;;;;;;;;;5064503;28;20462;-74
2021/01/12 07:15:40;;;;;;;6.03;2.97;;;;;;;;;;5061181;28;20409;-72
2021/01/12 07:18:06;;;;;;;5.63;3.00;;;;;;;;;;5063361;28;20052;-72
2021/01/12 07:20:35;;;;;;;4.43;2.95;;;;;;;;;;5065242;28;20040;-72
2021/01/12 07:23:01;;;;;;;5.57;3.10;;;;;;;;;;5059301;28;20127;-72
2021/01/12 07:25:29;;;;;;;4.97;2.92;;;;;;;;;;5055325;28;20058;-71
2021/01/12 07:28:03;;;;;;;5.38;2.97;;;;;;;;;;5065090;28;20048;-72
2021/01/12 07:30:30;;;;;;;7.70;3.42;;;;;;;;;;5063496;28;20140;-72
2021/01/12 07:32:57;;;;;;;5.38;3.25;;;;;;;;;;5063590;28;20098;-72
2021/01/12 07:35:26;;;;;;;5.30;3.40;;;;;;;;;;5059209;28;20153;-72
2021/01/12 07:37:57;;;;;;;5.72;3.67;;;;;;;;;;5062499;28;20304;-72
2021/01/12 07:40:23;;;;;;;10.80;3.45;;;;;;;;;;5062263;28;20441;-71
2021/01/12 07:42:51;;;;;;;5.07;3.60;;;;;;;;;;5062886;28;20048;-72
2021/01/12 07:45:18;;;;;;;5.97;3.70;;;;;;;;;;5062044;28;20047;-72
2021/01/12 07:47:48;;;;;;;7.10;3.28;;;;;;;;;;5064076;28;20048;-71
2021/01/12 07:50:14;;;;;;;7.90;4.72;;;;;;;;;;5057999;28;20076;-74
2021/01/12 07:52:41;;;;;;;14.65;3.88;;;;;;;;;;5058967;28;20055;-75
2021/01/12 07:55:08;;;;;;;9.27;5.25;;;;;;;;;;5062691;28;20052;-74
2021/01/12 07:57:35;;;;;;;10.15;4.80;;;;;;;;;;5063467;28;20048;-74
2021/01/12 08:00:11;;;;;;;11.60;4.95;;;;;;;;;;5065540;28;20046;-74
2021/01/12 08:02:38;;;;;;;9.98;5.00;;;;;;;;;;5064785;28;20044;-74
2021/01/12 08:05:05;;;;;;;9.73;5.78;;;;;;;;;;5061299;28;20546;-75
2021/01/12 08:07:32;;;;;;;7.18;5.07;;;;;;;;;;5062476;28;20051;-76
2021/01/12 08:09:58;;;;;;;8.68;5.30;;;;;;;;;;5063161;28;20119;-77
2021/01/12 08:12:25;;;;;;;12.27;4.78;;;;;;;;;;5057118;28;20080;-74
2021/01/12 08:14:52;;;;;;;9.20;4.47;;;;;;;;;;5065428;28;20045;-74
2021/01/12 08:17:21;;;;;;;12.30;5.65;;;;;;;;;;5058888;28;20134;-73
2021/01/12 08:19:50;;;;;;;9.38;5.22;;;;;;;;;;5058499;28;20048;-73
2021/01/12 08:22:19;;;;;;;8.45;4.43;;;;;;;;;;5063462;28;20047;-73
2021/01/12 08:24:46;;;;;;;8.70;4.95;;;;;;;;;;5064837;28;20059;-73
2021/01/12 08:27:13;;;;;;;9.02;4.28;;;;;;;;;;5061210;28;20465;-72
2021/01/12 08:29:39;;;;;;;8.30;4.40;;;;;;;;;;5059142;28;20487;-73
2021/01/12 08:32:07;;;;;;;6.55;3.58;;;;;;;;;;5069751;28;20052;-74
2021/01/12 08:34:41;;;;;;;7.63;4.10;;;;;;;;;;5072781;28;20040;-75
2021/01/12 08:37:09;;;;;;;8.48;3.97;;;;;;;;;;5071795;28;20154;-74
2021/01/12 08:39:35;;;;;;;5.90;3.92;;;;;;;;;;5070153;28;20268;-74
2021/01/12 08:42:06;;;;;;;10.05;4.53;;;;;;;;;;5065613;28;20056;-74
2021/01/12 08:44:38;;;;;;;7.47;4.15;;;;;;;;;;5066478;28;20075;-74
2021/01/12 08:47:05;;;;;;;7.03;3.88;;;;;;;;;;5071106;28;20058;-74
2021/01/12 08:49:32;;;;;;;7.30;3.75;;;;;;;;;;5069084;28;20048;-74
2021/01/12 08:51:59;;;;;;;5.65;3.55;;;;;;;;;;5069436;28;20049;-73
2021/01/12 08:54:28;;;;;;;5.22;3.53;;;;;;;;;;5071296;28;20047;-74
2021/01/12 08:56:58;;;;;;;4.75;2.70;;;;;;;;;;5070360;28;20135;-74
2021/01/12 08:59:42;;;;;;;5.85;3.45;;;;;;;;;;5062566;28;20048;-73
2021/01/12 09:02:16;;;;;;;6.70;3.38;;;;;;;;;;5064966;28;20138;-72
2021/01/12 09:04:42;;;;;;;8.77;4.25;;;;;;;;;;5056473;28;20116;-72
2021/01/12 09:07:09;;;;;;;7.03;4.00;;;;;;;;;;5067049;28;20613;-73
2021/01/12 09:09:35;;;;;;;8.70;4.05;;;;;;;;;;5064168;28;20045;-73
2021/01/12 09:12:09;;;;;;;6.80;3.83;;;;;;;;;;5068482;28;20521;-74
2021/01/12 09:14:37;;;;;;;;;;;;;;;;;;5065248;28;20149;-75
2021/01/12 09:17:03;;;;;;;9.77;4.05;;;;;;;;;;5066144;28;19928;-78
2021/01/12 09:19:33;;;;;;;7.03;4.10;;;;;;;;;;5066587;28;20044;-78
2021/01/12 09:22:18;;;;;;;6.32;4.18;;;;;;;;;;5068636;28;20063;-80
2021/01/12 09:24:50;;;;;;;12.45;3.70;;;;;;;;;;5067897;28;20048;-75
2021/01/12 09:27:29;;;;;;;7.10;4.10;;;;;;;;;;5065823;28;20052;-79
2021/01/12 09:29:57;;;;;;;7.18;3.42;;;;;;;;;;5060077;28;20083;-79
2021/01/12 09:32:32;;;;;;;5.85;3.88;;;;;;;;;;5061026;28;20091;-79
2021/01/12 09:35:08;;;;;;;8.07;4.40;;;;;;;;;;5061051;28;20079;-78
2021/01/12 09:37:34;;;;;;;6.15;3.80;;;;;;;;;;5062976;28;21038;-79
2021/01/12 09:40:01;;;;;;;10.48;4.32;;;;;;;;;;5060081;28;20044;-80
2021/01/12 09:42:28;;;;;;;10.10;4.57;;;;;;;;;;5062393;28;20048;-79
2021/01/12 09:45:06;;;;;;;7.88;4.00;;;;;;;;;;5067145;28;20767;-80
2021/01/12 09:47:36;;;;;;;9.25;4.80;;;;;;;;;;5062776;28;20063;-79
2021/01/12 09:50:06;;;;;;;7.55;4.72;;;;;;;;;;5065276;28;20044;-80
2021/01/12 09:52:32;;;;;;;7.05;4.63;;;;;;;;;;5065643;28;20139;-80
2021/01/12 09:54:58;;;;;;;12.43;4.72;;;;;;;;;;5064864;28;20045;-80
2021/01/12 09:57:25;;;;;;;7.65;3.78;;;;;;;;;;5061643;28;20048;-80
2021/01/12 09:59:51;;;;;;;12.68;4.18;;;;;;;;;;5062639;28;20525;-79
2021/01/12 10:02:17;;;;;;;6.72;4.00;;;;;;;;;;5066637;28;20048;-79
2021/01/12 10:04:44;;;;;;;7.55;4.22;;;;;;;;;;5065915;28;20040;-79
2021/01/12 10:07:10;;;;;;;6.88;4.30;;;;;;;;;;5063389;28;20669;-78
2021/01/12 10:09:37;;;;;;;6.65;3.80;;;;;;;;;;5060305;28;20044;-79
2021/01/12 10:12:04;;;;;;;5.90;4.25;;;;;;;;;;5063824;28;20403;-79
2021/01/12 10:14:30;;;;;;;6.63;3.58;;;;;;;;;;5063950;28;20127;-78
2021/01/12 10:16:56;;;;;;;8.07;4.55;;;;;;;;;;5066187;28;20514;-79
2021/01/12 10:19:23;;;;;;;5.97;4.00;;;;;;;;;;5066654;28;20090;-79
2021/01/12 10:21:49;;;;;;;7.00;3.50;;;;;;;;;;5066023;28;20059;-79
2021/01/12 10:24:18;;;;;;;7.88;4.00;;;;;;;;;;5061717;28;20135;-79
2021/01/12 10:26:45;;;;;;;6.07;3.88;;;;;;;;;;5055096;28;20521;-79
2021/01/12 10:29:11;;;;;;;8.57;4.10;;;;;;;;;;5063439;28;20448;-79
2021/01/12 10:31:48;;;;;;;7.22;3.75;;;;;;;;;;5064951;28;20121;-78
2021/01/12 10:34:16;;;;;;;7.00;3.78;;;;;;;;;;5062405;28;20052;-78
2021/01/12 10:36:42;;;;;;;8.48;4.10;;;;;;;;;;5064631;28;20492;-79
2021/01/12 10:39:10;;;;;;;6.15;4.32;;;;;;;;;;5065532;28;20059;-79
2021/01/12 10:41:37;;;;;;;5.38;3.72;;;;;;;;;;5067049;28;20140;-79
2021/01/12 10:44:03;;;;;;;6.75;4.00;;;;;;;;;;5061919;28;20088;-78
2021/01/12 10:46:29;;;;;;;7.45;4.43;;;;;;;;;;5061663;28;21933;-78
2021/01/12 10:48:55;;;;;;;6.95;4.35;;;;;;;;;;5060551;28;20117;-78
2021/01/12 10:51:22;;;;;;;6.72;4.50;;;;;;;;;;5066445;28;20136;-78
2021/01/12 10:53:51;;;;;;;7.35;4.13;;;;;;;;;;5063928;28;20098;-78
2021/01/12 10:56:17;;;;;;;6.60;3.58;;;;;;;;;;5061755;28;20041;-78
2021/01/12 10:58:43;;;;;;;5.72;4.40;;;;;;;;;;5060211;28;20067;-78
2021/01/12 11:01:15;;;;;;;6.45;4.47;;;;;;;;;;5063457;28;20056;-78
2021/01/12 11:03:41;;;;;;;6.32;3.92;;;;;;;;;;5066877;28;20124;-78
2021/01/12 11:06:08;;;;;;;6.82;4.13;;;;;;;;;;5067035;28;20048;-78
2021/01/12 11:08:34;;;;;;;5.72;3.75;;;;;;;;;;5063781;28;20055;-78
2021/01/12 11:11:01;;;;;;;6.38;3.42;;;;;;;;;;5066676;28;20045;-78
2021/01/12 11:13:28;;;;;;;7.75;4.38;;;;;;;;;;5063514;28;20041;-78
2021/01/12 11:15:58;;;;;;;6.85;4.40;;;;;;;;;;5065361;28;20402;-78
2021/01/12 11:18:24;;;;;;;;;;;;;;;;;;5062420;28;20099;-78
2021/01/12 11:20:51;;;;;;;6.55;4.05;;;;;;;;;;5066754;28;19924;-78
2021/01/12 11:23:19;;;;;;;6.05;4.20;;;;;;;;;;5062105;28;20139;-78
2021/01/12 11:25:46;;;;;;;6.60;3.92;;;;;;;;;;5065608;28;20044;-79
2021/01/12 11:28:12;;;;;;;7.43;4.47;;;;;;;;;;5060963;28;20055;-78
2021/01/12 11:30:38;;;;;;;6.40;4.32;;;;;;;;;;5065194;28;21725;-78
2021/01/12 11:33:09;;;;;;;7.53;4.30;;;;;;;;;;5062046;28;20482;-78
2021/01/12 11:35:35;;;;;;;5.38;3.85;;;;;;;;;;5066704;28;20055;-78
2021/01/12 11:38:02;;;;;;;8.18;4.70;;;;;;;;;;5057953;28;20506;-78
2021/01/12 11:40:28;;;;;;;7.50;4.50;;;;;;;;;;5066129;28;20554;-78
2021/01/12 11:42:54;;;;;;;7.10;4.10;;;;;;;;;;5061570;28;20147;-78
2021/01/12 11:45:24;;;;;;;6.68;3.90;;;;;;;;;;5060522;28;20052;-78
2021/01/12 11:47:52;;;;;;;6.43;4.00;;;;;;;;;;5063021;28;20082;-78
2021/01/12 11:50:18;;;;;;;7.30;4.00;;;;;;;;;;5061862;28;20516;-78
2021/01/12 11:52:44;;;;;;;6.65;3.88;;;;;;;;;;5061048;28;20044;-78
2021/01/12 11:55:11;;;;;;;7.55;4.18;;;;;;;;;;5064217;28;20048;-79
2021/01/12 11:57:40;;;;;;;6.65;3.90;;;;;;;;;;5064881;28;20056;-78
2021/01/12 12:00:09;;;;;;;6.55;4.13;;;;;;;;;;5065378;28;20512;-78
2021/01/12 12:02:37;;;;;;;8.15;4.57;;;;;;;;;;5064376;28;20072;-78
2021/01/12 12:05:04;;;;;;;7.03;4.15;;;;;;;;;;5059661;28;20072;-78
2021/01/12 12:07:32;;;;;;;7.40;4.20;;;;;;;;;;5062211;28;20187;-78
2021/01/12 12:10:03;;;;;;;7.05;3.97;;;;;;;;;;5062258;28;20099;-78
2021/01/12 12:12:29;;;;;;;8.93;4.68;;;;;;;;;;5060577;28;20056;-80
2021/01/12 12:14:58;;;;;;;6.55;3.90;;;;;;;;;;5061441;28;20079;-79
2021/01/12 12:17:24;;;;;;;6.43;3.72;;;;;;;;;;5058368;28;20048;-79
2021/01/12 12:19:52;;;;;;;5.95;3.58;;;;;;;;;;5062320;28;20160;-79
2021/01/12 12:22:18;;;;;;;7.43;3.70;;;;;;;;;;5057447;28;20052;-79
2021/01/12 12:24:44;;;;;;;6.72;3.72;;;;;;;;;;5063811;28;20047;-79
2021/01/12 12:27:16;;;;;;;6.18;3.65;;;;;;;;;;5061764;28;20040;-79
2021/01/12 12:29:42;;;;;;;5.63;3.83;;;;;;;;;;5059546;28;20051;-79
2021/01/12 12:32:08;;;;;;;6.13;3.70;;;;;;;;;;5063762;28;20406;-83
2021/01/12 12:34:34;;;;;;;13.95;4.75;;;;;;;;;;5065175;28;20059;-83
2021/01/12 12:37:00;;;;;;;7.68;3.97;;;;;;;;;;5065309;28;20056;-74
2021/01/12 12:39:27;;;;;;;7.40;3.75;;;;;;;;;;5066050;28;20049;-78
2021/01/12 12:41:57;;;;;;;7.68;3.45;;;;;;;;;;5065258;28;20059;-79
2021/01/12 12:44:24;;;;;;;7.78;4.00;;;;;;;;;;5062550;28;20057;-80
2021/01/12 12:46:53;;;;;;;6.28;4.07;;;;;;;;;;5069116;28;20041;-79
2021/01/12 12:49:20;;;;;;;7.80;3.85;;;;;;;;;;5060227;28;20057;-79
2021/01/12 12:51:49;;;;;;;6.65;3.83;;;;;;;;;;5056501;28;20554;-80
2021/01/12 12:54:16;;;;;;;5.75;3.65;;;;;;;;;;5055775;28;20132;-79
2021/01/12 12:56:50;;;;;;;6.40;3.47;;;;;;;;;;5063297;28;20131;-80
2021/01/12 12:59:19;;;;;;;8.85;4.45;;;;;;;;;;5069346;28;20059;-79
2021/01/12 13:01:46;;;;;;;5.78;3.42;;;;;;;;;;5067431;28;20056;-79
2021/01/12 13:04:14;;;;;;;6.80;4.03;;;;;;;;;;5061909;28;20123;-80
2021/01/12 13:06:40;;;;;;;6.82;3.85;;;;;;;;;;5061489;28;20052;-78
2021/01/12 13:09:11;;;;;;;5.95;3.70;;;;;;;;;;5066727;28;20135;-80
2021/01/12 13:11:38;;;;;;;6.88;4.15;;;;;;;;;;5063690;28;20048;-80
2021/01/12 13:14:04;;;;;;;5.30;3.15;;;;;;;;;;5056588;28;20067;-79
2021/01/12 13:16:32;;;;;;;5.22;3.50;;;;;;;;;;5062833;28;20052;-80
2021/01/12 13:19:01;;;;;;;5.57;3.60;;;;;;;;;;5066822;28;20091;-80
2021/01/12 13:21:27;;;;;;;5.15;3.65;;;;;;;;;;5057771;28;20049;-79
2021/01/12 13:23:54;;;;;;;5.32;3.67;;;;;;;;;;5060593;28;20111;-79
2021/01/12 13:26:24;;;;;;;8.98;4.57;;;;;;;;;;5062628;28;20112;-79
2021/01/12 13:28:50;;;;;;;6.97;3.67;;;;;;;;;;5066506;28;20044;-80
2021/01/12 13:31:16;;;;;;;6.53;4.47;;;;;;;;;;5067677;28;20041;-79
2021/01/12 13:33:44;;;;;;;7.40;3.47;;;;;;;;;;5072693;28;20055;-80
2021/01/12 13:36:11;;;;;;;7.97;4.10;;;;;;;;;;5072889;28;20567;-79
2021/01/12 13:38:38;;;;;;;6.38;3.72;;;;;;;;;;5067408;28;20048;-79
2021/01/12 13:41:04;;;;;;;5.68;3.60;;;;;;;;;;5072322;28;20045;-80
2021/01/12 13:43:30;;;;;;;7.30;3.80;;;;;;;;;;5064541;28;20056;-80
2021/01/12 13:45:57;;;;;;;7.88;4.60;;;;;;;;;;5071047;28;20465;-79
2021/01/12 13:48:23;;;;;;;6.70;4.40;;;;;;;;;;5072030;28;20524;-79
2021/01/12 13:50:49;;;;;;;8.00;4.10;;;;;;;;;;5068185;28;20568;-79
2021/01/12 13:53:15;;;;;;;5.85;3.70;;;;;;;;;;5068317;28;20075;-80
2021/01/12 13:55:42;;;;;;;5.38;3.25;;;;;;;;;;5071165;28;20078;-80
2021/01/12 13:58:08;;;;;;;6.75;3.78;;;;;;;;;;5061997;28;20135;-80
2021/01/12 14:00:38;;;;;;;6.53;3.65;;;;;;;;;;5068145;28;20040;-80
2021/01/12 14:03:04;;;;;;;7.47;4.07;;;;;;;;;;5062093;28;20067;-80
2021/01/12 14:05:31;;;;;;;6.07;3.40;;;;;;;;;;5068682;28;20135;-80
2021/01/12 14:07:57;;;;;;;8.88;3.85;;;;;;;;;;5065166;28;20056;-79
2021/01/12 14:10:24;;;;;;;5.82;4.00;;;;;;;;;;5067588;28;20059;-81
2021/01/12 14:12:51;;;;;;;8.02;4.50;;;;;;;;;;5064813;28;20048;-79
2021/01/12 14:15:19;;;;;;;6.45;4.05;;;;;;;;;;5071667;28;20435;-79
2021/01/12 14:17:46;;;;;;;5.47;3.33;;;;;;;;;;5061305;28;20057;-79
2021/01/12 14:20:16;;;;;;;6.32;4.07;;;;;;;;;;5067730;28;20577;-78
2021/01/12 14:22:42;;;;;;;5.70;3.80;;;;;;;;;;5062792;28;20048;-78
2021/01/12 14:25:09;;;;;;;7.28;3.53;;;;;;;;;;5059616;28;20781;-77
2021/01/12 14:27:38;;;;;;;9.63;4.35;;;;;;;;;;5062729;28;20581;-74
2021/01/12 14:30:08;;;;;;;6.45;3.17;;;;;;;;;;5065640;28;20180;-74
2021/01/12 14:32:35;;;;;;;5.57;3.58;;;;;;;;;;5066733;28;20451;-74
2021/01/12 14:35:02;;;;;;;7.22;3.60;;;;;;;;;;5060503;28;20052;-74
2021/01/12 14:37:40;;;;;;;5.85;4.00;;;;;;;;;;5059371;28;20395;-74
2021/01/12 14:40:10;;;;;;;5.78;3.92;;;;;;;;;;5065562;28;20106;-74
2021/01/12 14:42:39;;;;;;;5.35;3.53;;;;;;;;;;5069403;28;20047;-74
2021/01/12 14:45:05;;;;;;;7.63;3.93;;;;;;;;;;5063666;28;20048;-74
2021/01/12 14:47:32;;;;;;;8.10;3.78;;;;;;;;;;5065573;28;20127;-74